Tatsuryo Maru — JK5161 — position and weather

sailwx.info

Track history (hours):
 
Tides and Currents Weather Stations Pressure Air Temp Water Temp Dewpoint Dewpoint Depression Visibility Wind Speed Wind Dir Waves Ship Positions

Tatsuryo Maru

Last reported at 2017-Nov-08 05:56 UTC. Time now 2017-Nov-21 21:02 UTC.
Position N 34°37' E 134°57'.
Warning: this ship's position is 13 days out of date.

Length 59 m; draft 3.5 m.

Type: Cargo ship. MMSI: 431400121.

Date/timePositionNaut miles runAvg speedWind from/ knotsBaromVisibWave heightAir tempDewpointWater temp
2017-Nov-08 05:56N 34°37' E 134°57'4 9.0
2017-Nov-08 05:26N 34°37' E 135°02'410.3
2017-Nov-08 05:00N 34°37' E 135°08'511.0
2017-Nov-08 04:30N 34°37' E 135°14'4 8.5
2017-Nov-08 04:00N 34°42' E 135°15'1 1.2
2017-Nov-08 03:30N 34°42' E 135°14'0 0.0
2017-Nov-08 03:00N 34°42' E 135°14'0 0.0
2017-Nov-08 02:30N 34°42' E 135°14'0 0.0
2017-Nov-08 02:00N 34°42' E 135°14'0 0.0
2017-Nov-08 01:30N 34°42' E 135°14'0 0.0
2017-Nov-08 01:00N 34°42' E 135°14'0 0.0
2017-Nov-08 00:30N 34°42' E 135°14'0 0.0
2017-Nov-08 00:00N 34°42' E 135°14'0 0.0
2017-Nov-07 23:30N 34°42' E 135°14'0 0.4
2017-Nov-07 23:00N 34°42' E 135°14'4 8.5
2017-Nov-07 22:30N 34°38' E 135°15'3 5.7
2017-Nov-07 22:00N 34°36' E 135°12'0 0.1
2017-Nov-07 21:30N 34°36' E 135°12'0 0.0
2017-Nov-07 21:00N 34°36' E 135°12'0 0.0
2017-Nov-07 20:30N 34°36' E 135°12'0 0.0
2017-Nov-07 20:00N 34°36' E 135°12'0 0.1
2017-Nov-07 19:30N 34°36' E 135°12'0 0.0
2017-Nov-07 19:00N 34°36' E 135°12'0 0.1
2017-Nov-07 18:30N 34°36' E 135°12'0 0.0
2017-Nov-07 18:00N 34°36' E 135°12'0 0.1
2017-Nov-07 17:30N 34°36' E 135°12'0 0.0
2017-Nov-07 17:00N 34°36' E 135°12'0 0.0
2017-Nov-07 16:30N 34°36' E 135°12'0 0.0
2017-Nov-07 16:00N 34°36' E 135°12'1 2.6
2017-Nov-07 15:30N 34°36' E 135°11'611.3
2017-Nov-07 15:00N 34°35' E 135°04'510.0
2017-Nov-07 14:30N 34°37' E 134°58'  
2017-Nov-05 06:03N 34°37' E 134°57'1 7.1
2017-Nov-05 05:58N 34°37' E 134°58'4 6.4
2017-Nov-05 05:21N 34°36' E 135°03'3 7.3
2017-Nov-05 05:00N 34°36' E 135°06'510.1
2017-Nov-05 04:30N 34°37' E 135°12'4 7.8
2017-Nov-05 04:00N 34°40' E 135°15'3 5.2
2017-Nov-05 03:30N 34°42' E 135°14'0 0.0
2017-Nov-05 03:00N 34°42' E 135°14'0 0.0
2017-Nov-05 02:30N 34°42' E 135°14'0 0.0
2017-Nov-05 02:00N 34°42' E 135°14'0 0.0
2017-Nov-05 01:30N 34°42' E 135°14'0 0.0
2017-Nov-05 01:00N 34°42' E 135°14'0 0.0
2017-Nov-05 00:30N 34°42' E 135°14'0 0.0
2017-Nov-05 00:00N 34°42' E 135°14'0 0.2
2017-Nov-04 23:30N 34°42' E 135°14'0 0.4
2017-Nov-04 23:00N 34°42' E 135°14'4 7.3
2017-Nov-04 22:30N 34°38' E 135°16'3 6.1
2017-Nov-04 22:00N 34°36' E 135°13'0 0.0
2017-Nov-04 21:30N 34°36' E 135°13'0 0.0
2017-Nov-04 21:00N 34°36' E 135°13'0 0.0
2017-Nov-04 20:30N 34°36' E 135°13'0 0.0
2017-Nov-04 20:00N 34°36' E 135°13'0 0.0
2017-Nov-04 19:30N 34°36' E 135°13'0 0.1
2017-Nov-04 19:00N 34°36' E 135°13'5 9.0
2017-Nov-04 18:30N 34°35' E 135°08'714.3
2017-Nov-04 18:00N 34°37' E 134°59'  
2017-Oct-30 05:55N 34°36' E 134°56'410.7
2017-Oct-30 05:30N 34°37' E 135°01'510.3
2017-Oct-30 05:00N 34°37' E 135°08'510.1
2017-Oct-30 04:30N 34°37' E 135°14'4 7.9
2017-Oct-30 04:00N 34°41' E 135°15'1 2.0
2017-Oct-30 03:30N 34°42' E 135°14'0 0.0
2017-Oct-30 03:00N 34°42' E 135°14'0 0.0
2017-Oct-30 02:30N 34°42' E 135°14'0 0.0
2017-Oct-30 02:00N 34°42' E 135°14'0 0.0
2017-Oct-30 01:30N 34°42' E 135°14'0 0.0
2017-Oct-30 01:00N 34°42' E 135°14'0 0.0
2017-Oct-30 00:30N 34°42' E 135°14'1 1.3
2017-Oct-30 00:00N 34°41' E 135°14'4 8.2
2017-Oct-29 23:30N 34°37' E 135°14'611.2
2017-Oct-29 23:00N 34°35' E 135°07'611.2
2017-Oct-29 22:30N 34°37' E 135°01'611.2
2017-Oct-29 21:57N 34°35' E 134°54'  
Track history (hours):
 
Tides and Currents Weather Stations Pressure Air Temp Water Temp Dewpoint Dewpoint Depression Visibility Wind Speed Wind Dir Waves Ship Positions

Tatsuryo Maru

Last reported at 2017-Nov-08 05:56 UTC. Time now 2017-Nov-21 21:02 UTC.
Position N 34°37' E 134°57'.
Warning: this ship's position is 13 days out of date.

Length 59 m; draft 3.5 m.

Type: Cargo ship. MMSI: 431400121.

Date/timePositionNaut miles runAvg speedWind from/ knotsBaromVisibWave heightAir tempDewpointWater temp
2017-Nov-08 05:56N 34°37' E 134°57'4 9.0
2017-Nov-08 05:26N 34°37' E 135°02'410.3
2017-Nov-08 05:00N 34°37' E 135°08'511.0
2017-Nov-08 04:30N 34°37' E 135°14'4 8.5
2017-Nov-08 04:00N 34°42' E 135°15'1 1.2
2017-Nov-08 03:30N 34°42' E 135°14'0 0.0
2017-Nov-08 03:00N 34°42' E 135°14'0 0.0
2017-Nov-08 02:30N 34°42' E 135°14'0 0.0
2017-Nov-08 02:00N 34°42' E 135°14'0 0.0
2017-Nov-08 01:30N 34°42' E 135°14'0 0.0
2017-Nov-08 01:00N 34°42' E 135°14'0 0.0
2017-Nov-08 00:30N 34°42' E 135°14'0 0.0
2017-Nov-08 00:00N 34°42' E 135°14'0 0.0
2017-Nov-07 23:30N 34°42' E 135°14'0 0.4
2017-Nov-07 23:00N 34°42' E 135°14'4 8.5
2017-Nov-07 22:30N 34°38' E 135°15'3 5.7
2017-Nov-07 22:00N 34°36' E 135°12'0 0.1
2017-Nov-07 21:30N 34°36' E 135°12'0 0.0
2017-Nov-07 21:00N 34°36' E 135°12'0 0.0
2017-Nov-07 20:30N 34°36' E 135°12'0 0.0
2017-Nov-07 20:00N 34°36' E 135°12'0 0.1
2017-Nov-07 19:30N 34°36' E 135°12'0 0.0
2017-Nov-07 19:00N 34°36' E 135°12'0 0.1
2017-Nov-07 18:30N 34°36' E 135°12'0 0.0
2017-Nov-07 18:00N 34°36' E 135°12'0 0.1
2017-Nov-07 17:30N 34°36' E 135°12'0 0.0
2017-Nov-07 17:00N 34°36' E 135°12'0 0.0
2017-Nov-07 16:30N 34°36' E 135°12'0 0.0
2017-Nov-07 16:00N 34°36' E 135°12'1 2.6
2017-Nov-07 15:30N 34°36' E 135°11'611.3
2017-Nov-07 15:00N 34°35' E 135°04'510.0
2017-Nov-07 14:30N 34°37' E 134°58'  
2017-Nov-05 06:03N 34°37' E 134°57'1 7.1
2017-Nov-05 05:58N 34°37' E 134°58'4 6.4
2017-Nov-05 05:21N 34°36' E 135°03'3 7.3
2017-Nov-05 05:00N 34°36' E 135°06'510.1
2017-Nov-05 04:30N 34°37' E 135°12'4 7.8
2017-Nov-05 04:00N 34°40' E 135°15'3 5.2
2017-Nov-05 03:30N 34°42' E 135°14'0 0.0
2017-Nov-05 03:00N 34°42' E 135°14'0 0.0
2017-Nov-05 02:30N 34°42' E 135°14'0 0.0
2017-Nov-05 02:00N 34°42' E 135°14'0 0.0
2017-Nov-05 01:30N 34°42' E 135°14'0 0.0
2017-Nov-05 01:00N 34°42' E 135°14'0 0.0
2017-Nov-05 00:30N 34°42' E 135°14'0 0.0
2017-Nov-05 00:00N 34°42' E 135°14'0 0.2
2017-Nov-04 23:30N 34°42' E 135°14'0 0.4
2017-Nov-04 23:00N 34°42' E 135°14'4 7.3
2017-Nov-04 22:30N 34°38' E 135°16'3 6.1
2017-Nov-04 22:00N 34°36' E 135°13'0 0.0
2017-Nov-04 21:30N 34°36' E 135°13'0 0.0
2017-Nov-04 21:00N 34°36' E 135°13'0 0.0
2017-Nov-04 20:30N 34°36' E 135°13'0 0.0
2017-Nov-04 20:00N 34°36' E 135°13'0 0.0
2017-Nov-04 19:30N 34°36' E 135°13'0 0.1
2017-Nov-04 19:00N 34°36' E 135°13'5 9.0
2017-Nov-04 18:30N 34°35' E 135°08'714.3
2017-Nov-04 18:00N 34°37' E 134°59'  
2017-Oct-30 05:55N 34°36' E 134°56'410.7
2017-Oct-30 05:30N 34°37' E 135°01'510.3
2017-Oct-30 05:00N 34°37' E 135°08'510.1
2017-Oct-30 04:30N 34°37' E 135°14'4 7.9
2017-Oct-30 04:00N 34°41' E 135°15'1 2.0
2017-Oct-30 03:30N 34°42' E 135°14'0 0.0
2017-Oct-30 03:00N 34°42' E 135°14'0 0.0
2017-Oct-30 02:30N 34°42' E 135°14'0 0.0
2017-Oct-30 02:00N 34°42' E 135°14'0 0.0
2017-Oct-30 01:30N 34°42' E 135°14'0 0.0
2017-Oct-30 01:00N 34°42' E 135°14'0 0.0
2017-Oct-30 00:30N 34°42' E 135°14'1 1.3
2017-Oct-30 00:00N 34°41' E 135°14'4 8.2
2017-Oct-29 23:30N 34°37' E 135°14'611.2
2017-Oct-29 23:00N 34°35' E 135°07'611.2
2017-Oct-29 22:30N 34°37' E 135°01'611.2
2017-Oct-29 21:57N 34°35' E 134°54'  

Dump ship's entire track history